Sun Globe — 9HA2857 — position and weather

sailwx.info

Track history (hours):
 
Tides and Currents Weather Stations Pressure Air Temp Water Temp Dewpoint Dewpoint Depression Visibility Wind Speed Wind Dir Waves Ship Positions

Sun Globe

Last reported at 2017-Mar-28 05:33 UTC. Time now 2017-Mar-28 06:22 UTC.
Position N 09°17' W 079°55'.

Length 190 m; draft 11.7 m.

Type: Cargo ship. MMSI: 256415000.

Date/timePositionNaut miles runAvg speedWind from/ knotsBaromVisibWave heightAir tempDewpointWater temp
2017-Mar-28 05:33N 09°17' W 079°55'4 4.1
2017-Mar-28 04:33N 09°21' W 079°55'1 1.3
2017-Mar-28 03:33N 09°22' W 079°56'0 0.0
2017-Mar-28 02:33N 09°22' W 079°56'0 0.0
2017-Mar-28 01:33N 09°22' W 079°56'0 0.0
2017-Mar-28 00:33N 09°22' W 079°56'0 0.0
2017-Mar-27 23:33N 09°22' W 079°56'0 0.0
2017-Mar-27 22:33N 09°22' W 079°56'0 0.0
2017-Mar-27 21:33N 09°22' W 079°56'0 0.0
2017-Mar-27 20:33N 09°22' W 079°56'0 0.0
2017-Mar-27 19:33N 09°22' W 079°56'0 0.0
2017-Mar-27 18:24N 09°22' W 079°56'0 0.0
2017-Mar-27 17:30N 09°22' W 079°56'0 0.0
2017-Mar-27 16:33N 09°22' W 079°56'1 0.5
2017-Mar-27 15:33N 09°23' W 079°55'1 1.4
2017-Mar-27 14:33N 09°24' W 079°56'0 0.1
2017-Mar-27 13:29N 09°23' W 079°56'0 0.1
2017-Mar-27 12:32N 09°23' W 079°56'0 0.0
2017-Mar-27 11:32N 09°23' W 079°56'0 0.0
2017-Mar-27 10:32N 09°23' W 079°56'0 0.0
2017-Mar-27 09:32N 09°23' W 079°56'0 0.0
2017-Mar-27 08:32N 09°23' W 079°56'0 0.0
2017-Mar-27 07:32N 09°23' W 079°56'0 0.0
2017-Mar-27 06:32N 09°23' W 079°56'0 0.0
2017-Mar-27 05:29N 09°23' W 079°56'0 0.0
2017-Mar-27 04:32N 09°23' W 079°56'0 0.0
2017-Mar-27 03:32N 09°23' W 079°56'0 0.0
2017-Mar-27 02:32N 09°23' W 079°56'0 0.0
2017-Mar-27 01:32N 09°23' W 079°56'0 0.0
2017-Mar-27 00:32N 09°23' W 079°56'0 0.0
2017-Mar-26 23:32N 09°23' W 079°56'0 0.0
2017-Mar-26 22:32N 09°23' W 079°56'0 0.0
2017-Mar-26 21:26N 09°23' W 079°56'0 0.0
2017-Mar-26 20:32N 09°23' W 079°56'2 1.7
2017-Mar-26 19:33N 09°25' W 079°55'5 4.6
2017-Mar-26 18:33N 09°29' W 079°55'  
Track history (hours):
 
Tides and Currents Weather Stations Pressure Air Temp Water Temp Dewpoint Dewpoint Depression Visibility Wind Speed Wind Dir Waves Ship Positions

Sun Globe

Last reported at 2017-Mar-28 05:33 UTC. Time now 2017-Mar-28 06:22 UTC.
Position N 09°17' W 079°55'.

Length 190 m; draft 11.7 m.

Type: Cargo ship. MMSI: 256415000.

Date/timePositionNaut miles runAvg speedWind from/ knotsBaromVisibWave heightAir tempDewpointWater temp
2017-Mar-28 05:33N 09°17' W 079°55'4 4.1
2017-Mar-28 04:33N 09°21' W 079°55'1 1.3
2017-Mar-28 03:33N 09°22' W 079°56'0 0.0
2017-Mar-28 02:33N 09°22' W 079°56'0 0.0
2017-Mar-28 01:33N 09°22' W 079°56'0 0.0
2017-Mar-28 00:33N 09°22' W 079°56'0 0.0
2017-Mar-27 23:33N 09°22' W 079°56'0 0.0
2017-Mar-27 22:33N 09°22' W 079°56'0 0.0
2017-Mar-27 21:33N 09°22' W 079°56'0 0.0
2017-Mar-27 20:33N 09°22' W 079°56'0 0.0
2017-Mar-27 19:33N 09°22' W 079°56'0 0.0
2017-Mar-27 18:24N 09°22' W 079°56'0 0.0
2017-Mar-27 17:30N 09°22' W 079°56'0 0.0
2017-Mar-27 16:33N 09°22' W 079°56'1 0.5
2017-Mar-27 15:33N 09°23' W 079°55'1 1.4
2017-Mar-27 14:33N 09°24' W 079°56'0 0.1
2017-Mar-27 13:29N 09°23' W 079°56'0 0.1
2017-Mar-27 12:32N 09°23' W 079°56'0 0.0
2017-Mar-27 11:32N 09°23' W 079°56'0 0.0
2017-Mar-27 10:32N 09°23' W 079°56'0 0.0
2017-Mar-27 09:32N 09°23' W 079°56'0 0.0
2017-Mar-27 08:32N 09°23' W 079°56'0 0.0
2017-Mar-27 07:32N 09°23' W 079°56'0 0.0
2017-Mar-27 06:32N 09°23' W 079°56'0 0.0
2017-Mar-27 05:29N 09°23' W 079°56'0 0.0
2017-Mar-27 04:32N 09°23' W 079°56'0 0.0
2017-Mar-27 03:32N 09°23' W 079°56'0 0.0
2017-Mar-27 02:32N 09°23' W 079°56'0 0.0
2017-Mar-27 01:32N 09°23' W 079°56'0 0.0
2017-Mar-27 00:32N 09°23' W 079°56'0 0.0
2017-Mar-26 23:32N 09°23' W 079°56'0 0.0
2017-Mar-26 22:32N 09°23' W 079°56'0 0.0
2017-Mar-26 21:26N 09°23' W 079°56'0 0.0
2017-Mar-26 20:32N 09°23' W 079°56'2 1.7
2017-Mar-26 19:33N 09°25' W 079°55'5 4.6
2017-Mar-26 18:33N 09°29' W 079°55'  

Dump ship's entire track history